Time;durP1;ratioP1;P1;durP2;ratioP2;P2;SDS_P1;SDS_P2;PMS_P1;PMS_P2;Temp;Humidity;BMP_temperature;BMP_pressure;BME280_temperature;BME280_humidity;BME280_pressure;Samples;Min_cycle;Max_cycle;Signal;HPM_P1;HPM_P2
2023/10/21 00:01:46;;;;;;;9.32;4.53;;;;;;;11.14;100.00;98263.75;5039276;28;20398;-78
2023/10/21 00:04:12;;;;;;;9.77;4.40;;;;;;;11.15;100.00;98265.38;5050242;28;20029;-78
2023/10/21 00:06:38;;;;;;;12.45;4.57;;;;;;;11.13;100.00;98262.13;5048736;28;20044;-77
2023/10/21 00:09:03;;;;;;;13.10;4.90;;;;;;;11.13;100.00;98266.56;5049550;28;20039;-77
2023/10/21 00:11:28;;;;;;;7.72;4.82;;;;;;;11.15;100.00;98265.38;5047664;28;20449;-78
2023/10/21 00:13:54;;;;;;;8.93;4.35;;;;;;;11.11;100.00;98272.00;5044655;28;20292;-78
2023/10/21 00:16:19;;;;;;;11.57;5.00;;;;;;;11.11;100.00;98274.66;5044328;28;20486;-78
2023/10/21 00:18:45;;;;;;;7.97;4.28;;;;;;;11.12;100.00;98281.53;5050121;28;20031;-78
2023/10/21 00:21:10;;;;;;;8.65;4.80;;;;;;;11.15;100.00;98291.72;5049333;28;20115;-78
2023/10/21 00:23:36;;;;;;;8.43;4.90;;;;;;;11.14;100.00;98290.06;5049096;28;20032;-78
2023/10/21 00:26:02;;;;;;;7.72;4.70;;;;;;;11.15;100.00;98294.34;5048538;28;20032;-77
2023/10/21 00:28:28;;;;;;;15.07;4.80;;;;;;;11.13;100.00;98298.97;5049340;28;20021;-78
2023/10/21 00:30:53;;;;;;;10.32;5.10;;;;;;;11.15;100.00;98298.78;5046503;28;20044;-77
2023/10/21 00:33:18;;;;;;;9.80;5.53;;;;;;;11.12;100.00;98305.22;5037132;28;20074;-77
2023/10/21 00:35:47;;;;;;;8.90;5.10;;;;;;;11.11;100.00;98305.41;5048969;28;20509;-77
2023/10/21 00:38:13;;;;;;;13.13;5.95;;;;;;;11.15;100.00;98309.31;5050546;28;20427;-77
2023/10/21 00:40:38;;;;;;;11.10;6.32;;;;;;;11.15;100.00;98310.13;5049237;28;20024;-77
2023/10/21 00:43:04;;;;;;;10.38;6.07;;;;;;;11.17;100.00;98313.41;5049743;28;20037;-77
2023/10/21 00:45:30;;;;;;;8.73;6.30;;;;;;;11.11;100.00;98316.75;5049099;28;20021;-76
2023/10/21 00:47:55;;;;;;;9.38;6.20;;;;;;;11.12;100.00;98323.66;5048794;28;20039;-77
2023/10/21 00:50:21;;;;;;;11.82;6.47;;;;;;;11.11;100.00;98322.00;5040323;28;20051;-77
2023/10/21 00:52:47;;;;;;;13.90;6.20;;;;;;;11.08;100.00;98327.63;5040506;28;20029;-77
2023/10/21 00:55:13;;;;;;;14.18;7.05;;;;;;;11.10;100.00;98330.91;5027932;28;20025;-77
2023/10/21 00:57:39;;;;;;;13.45;6.55;;;;;;;11.10;100.00;98335.34;5042235;28;20029;-77
2023/10/21 01:00:10;;;;;;;12.23;6.35;;;;;;;11.10;100.00;98335.34;5041593;28;20025;-77
2023/10/21 01:02:37;;;;;;;10.68;6.75;;;;;;;11.10;100.00;98341.44;5045470;28;20033;-77
2023/10/21 01:05:02;;;;;;;9.73;6.03;;;;;;;11.09;100.00;98341.63;5048309;28;20021;-77
2023/10/21 01:07:32;;;;;;;9.07;5.65;;;;;;;11.09;100.00;98341.63;5048922;28;20037;-77
2023/10/21 01:09:57;;;;;;;12.63;6.38;;;;;;;11.10;100.00;98346.69;5059648;28;20032;-77
2023/10/21 01:12:23;;;;;;;9.40;5.75;;;;;;;11.09;100.00;98345.06;5046794;28;20737;-77
2023/10/21 01:14:48;;;;;;;12.38;5.72;;;;;;;11.11;100.00;98345.69;5047005;28;20112;-76
2023/10/21 01:17:13;;;;;;;11.38;5.45;;;;;;;11.11;100.00;98353.59;5062468;28;20033;-77
2023/10/21 01:19:38;;;;;;;11.45;5.68;;;;;;;11.14;100.00;98352.41;5048233;28;20040;-77
2023/10/21 01:22:07;;;;;;;10.25;5.57;;;;;;;11.15;100.00;98360.13;5048590;28;20059;-77
2023/10/21 01:24:32;;;;;;;8.32;5.63;;;;;;;11.15;100.00;98354.88;5046975;28;20025;-77
2023/10/21 01:26:58;;;;;;;8.80;6.53;;;;;;;11.14;100.00;98361.13;5045654;28;20095;-77
2023/10/21 01:29:23;;;;;;;12.77;6.35;;;;;;;11.19;100.00;98371.13;5048322;28;20059;-77
2023/10/21 01:31:48;;;;;;;10.57;6.20;;;;;;;11.19;100.00;98371.94;5047349;28;20017;-77
2023/10/21 01:34:15;;;;;;;11.60;6.30;;;;;;;11.22;100.00;98382.13;5048287;28;20029;-77
2023/10/21 01:36:40;;;;;;;8.85;5.78;;;;;;;11.21;100.00;98374.41;5046679;28;20021;-77
2023/10/21 01:39:10;;;;;;;9.50;6.43;;;;;;;11.20;100.00;98383.28;5047415;28;20035;-77
2023/10/21 01:41:37;;;;;;;9.82;5.78;;;;;;;11.21;100.00;98377.06;5048207;28;20028;-77
2023/10/21 01:44:03;;;;;;;12.43;6.28;;;;;;;11.23;100.00;98377.69;5052260;28;20044;-77
2023/10/21 01:46:28;;;;;;;8.27;5.97;;;;;;;11.24;100.00;98374.88;5052465;28;20037;-77
2023/10/21 01:48:54;;;;;;;11.55;6.28;;;;;;;11.24;100.00;98385.41;5051410;28;20796;-77
2023/10/21 01:51:19;;;;;;;8.70;5.40;;;;;;;11.27;100.00;98390.31;5052969;28;20541;-77
2023/10/21 01:53:44;;;;;;;11.80;6.25;;;;;;;11.27;100.00;98392.13;5050362;28;20029;-77
2023/10/21 01:56:09;;;;;;;12.68;5.90;;;;;;;11.28;100.00;98396.41;5041085;28;20100;-77
2023/10/21 01:58:36;;;;;;;9.18;5.45;;;;;;;11.30;100.00;98389.97;5050222;28;20032;-76
2023/10/21 02:01:09;;;;;;;10.52;5.93;;;;;;;11.30;100.00;98400.50;5052481;28;20029;-77
2023/10/21 02:03:43;;;;;;;8.32;6.00;;;;;;;11.29;100.00;98398.03;5049782;28;20070;-77
2023/10/21 02:06:09;;;;;;;9.07;6.20;;;;;;;11.29;100.00;98398.03;5051222;28;20260;-76
2023/10/21 02:08:35;;;;;;;12.00;6.15;;;;;;;11.30;100.00;98411.00;5052476;28;20382;-76
2023/10/21 02:11:00;;;;;;;10.65;5.88;;;;;;;11.29;100.00;98409.38;5050041;28;20037;-76
2023/10/21 02:13:25;;;;;;;10.27;5.70;;;;;;;11.27;100.00;98410.56;5037131;28;20033;-77
2023/10/21 02:15:51;;;;;;;9.73;6.07;;;;;;;11.28;100.00;98406.94;5050285;28;20025;-77
2023/10/21 02:18:17;;;;;;;9.95;6.20;;;;;;;11.28;100.00;98417.47;5049723;28;20078;-77
2023/10/21 02:24:04;;;;;;;10.05;6.45;;;;;;;11.28;100.00;98428.81;5081250;23;20069;-76
2023/10/21 02:26:30;;;;;;;10.15;5.82;;;;;;;11.24;100.00;98427.53;4978457;28;20026;-78
2023/10/21 02:28:55;;;;;;;12.32;6.28;;;;;;;11.28;100.00;98431.44;4991493;28;20034;-75
2023/10/21 02:31:20;;;;;;;11.05;6.03;;;;;;;11.25;100.00;98431.78;5007394;28;20038;-76
2023/10/21 02:33:46;;;;;;;9.90;6.10;;;;;;;11.23;100.00;98436.41;5009200;28;20037;-76
2023/10/21 02:36:11;;;;;;;14.00;6.60;;;;;;;11.27;100.00;98442.16;4993920;28;20018;-76
2023/10/21 02:38:36;;;;;;;9.43;6.45;;;;;;;11.24;100.00;98437.25;4986581;28;20468;-76
2023/10/21 02:41:03;;;;;;;10.30;5.85;;;;;;;11.21;100.00;98438.41;5008243;28;21165;-76
2023/10/21 02:43:29;;;;;;;11.85;6.28;;;;;;;11.23;100.00;98438.22;4990969;28;20408;-76
2023/10/21 02:45:54;;;;;;;14.48;6.75;;;;;;;11.21;100.00;98443.66;5004227;28;20395;-76
2023/10/21 02:48:19;;;;;;;12.00;6.38;;;;;;;11.21;100.00;98448.94;4982332;28;20041;-76
2023/10/21 02:50:45;;;;;;;11.23;6.53;;;;;;;11.21;100.00;98446.31;5008659;28;20040;-76
2023/10/21 02:53:10;;;;;;;17.10;6.93;;;;;;;11.20;100.00;98462.25;5009925;28;20024;-76
2023/10/21 02:55:36;;;;;;;10.45;6.30;;;;;;;11.18;100.00;98454.53;4992765;28;20511;-77
2023/10/21 02:58:02;;;;;;;9.32;6.07;;;;;;;11.16;100.00;98456.53;5010158;28;20385;-77
2023/10/21 03:00:27;;;;;;;9.43;5.97;;;;;;;11.16;100.00;98461.78;5010999;28;20037;-76
2023/10/21 03:02:52;;;;;;;11.07;6.05;;;;;;;11.20;100.00;98467.50;5009676;28;20450;-75
2023/10/21 03:05:18;;;;;;;11.32;6.45;;;;;;;11.19;100.00;98477.22;5011020;28;20034;-79
2023/10/21 03:07:45;;;;;;;12.27;5.95;;;;;;;11.17;100.00;98473.94;4992635;28;20022;-79
2023/10/21 03:10:11;;;;;;;8.40;6.13;;;;;;;11.18;100.00;98475.59;5009297;28;20384;-76
2023/10/21 03:12:36;;;;;;;10.73;6.15;;;;;;;11.18;100.00;98478.22;4993371;28;20036;-76
2023/10/21 03:15:02;;;;;;;11.57;5.95;;;;;;;11.18;100.00;98480.03;5007891;28;20376;-76
2023/10/21 03:17:28;;;;;;;10.50;5.63;;;;;;;11.19;100.00;98481.66;5009989;28;20041;-76
2023/10/21 03:19:56;;;;;;;8.75;5.95;;;;;;;11.17;100.00;98475.75;5008921;28;20030;-76
2023/10/21 03:22:22;;;;;;;11.32;6.00;;;;;;;11.17;100.00;98483.66;5009961;28;20034;-76
2023/10/21 03:24:47;;;;;;;9.02;5.78;;;;;;;11.17;100.00;98489.75;4939987;28;1094000;-76
2023/10/21 03:27:13;;;;;;;12.57;5.80;;;;;;;11.16;100.00;98488.09;5011543;28;20025;-76
2023/10/21 03:29:40;;;;;;;10.05;6.10;;;;;;;11.13;100.00;98501.63;5010954;28;20030;-76
2023/10/21 03:32:06;;;;;;;8.55;5.38;;;;;;;11.16;100.00;98509.16;5010471;28;20021;-76
2023/10/21 03:34:33;;;;;;;11.18;6.07;;;;;;;11.14;100.00;98505.88;5007978;28;20751;-77
2023/10/21 03:36:59;;;;;;;14.85;5.90;;;;;;;11.16;100.00;98510.97;5009422;28;20899;-77
2023/10/21 03:39:26;;;;;;;12.65;5.93;;;;;;;11.14;100.00;98516.41;4994562;28;20018;-77
2023/10/21 03:41:51;;;;;;;8.40;5.82;;;;;;;11.14;100.00;98510.31;5010611;28;20379;-77
2023/10/21 03:44:16;;;;;;;10.23;6.00;;;;;;;11.12;100.00;98512.31;5009381;28;20079;-77
2023/10/21 03:46:42;;;;;;;9.65;5.45;;;;;;;11.12;100.00;98525.47;5010412;28;20487;-77
2023/10/21 03:49:07;;;;;;;9.18;5.70;;;;;;;11.13;100.00;98522.66;5011599;28;20393;-77
2023/10/21 03:51:33;;;;;;;10.55;5.30;;;;;;;11.12;100.00;98539.44;5008494;28;20498;-79
2023/10/21 03:53:58;;;;;;;9.20;5.45;;;;;;;11.13;100.00;98535.81;5009261;28;20403;-79
2023/10/21 03:56:24;;;;;;;11.18;5.75;;;;;;;11.11;100.00;98537.81;5011083;28;20125;-79
2023/10/21 03:58:49;;;;;;;10.70;4.93;;;;;;;11.14;100.00;98548.00;5007703;28;20026;-79
2023/10/21 04:01:14;;;;;;;10.07;5.22;;;;;;;11.16;100.00;98546.00;5011736;28;20032;-79
2023/10/21 04:03:40;;;;;;;9.48;5.43;;;;;;;11.17;100.00;98546.81;5011157;28;20026;-78
2023/10/21 04:06:08;;;;;;;9.60;5.13;;;;;;;11.18;100.00;98554.53;5009851;28;20471;-78
2023/10/21 04:08:33;;;;;;;11.75;5.22;;;;;;;11.19;100.00;98555.34;5010326;28;20036;-78
2023/10/21 04:10:59;;;;;;;12.27;4.88;;;;;;;11.22;100.00;98555.84;4990243;28;20030;-79
2023/10/21 04:13:24;;;;;;;9.23;4.72;;;;;;;11.23;100.00;98565.41;5000879;28;20091;-79
2023/10/21 04:15:50;;;;;;;12.50;4.78;;;;;;;11.23;100.00;98567.22;5009979;28;20101;-79
2023/10/21 04:18:15;;;;;;;11.65;4.97;;;;;;;11.27;100.00;98571.13;5007896;28;20633;-79
2023/10/21 04:20:41;;;;;;;7.35;4.88;;;;;;;11.29;100.00;98572.59;4992523;28;20034;-79
2023/10/21 04:23:06;;;;;;;10.15;5.28;;;;;;;11.35;100.00;98584.25;5008873;28;20042;-79
2023/10/21 04:25:32;;;;;;;12.55;5.63;;;;;;;11.37;100.00;98584.06;4992758;28;20037;-79
2023/10/21 04:27:57;;;;;;;8.63;5.30;;;;;;;11.38;100.00;98585.69;5010192;28;20021;-79
2023/10/21 04:30:23;;;;;;;10.45;5.68;;;;;;;11.38;100.00;98596.22;5008576;28;20029;-77
2023/10/21 04:32:50;;;;;;;10.65;5.80;;;;;;;11.42;100.00;98589.63;5008434;28;20034;-77
2023/10/21 04:35:16;;;;;;;13.00;5.90;;;;;;;11.41;100.00;98595.88;4993474;28;20350;-77
2023/10/21 04:37:43;;;;;;;10.50;5.90;;;;;;;11.40;100.00;98599.50;5010267;28;20058;-77
2023/10/21 04:40:09;;;;;;;15.30;6.07;;;;;;;11.37;100.00;98595.41;4993106;28;20025;-76
2023/10/21 04:42:35;;;;;;;11.57;6.03;;;;;;;11.38;100.00;98602.31;5009989;28;20045;-76
2023/10/21 04:45:01;;;;;;;11.23;5.88;;;;;;;11.35;100.00;98604.47;5010912;28;20037;-77
2023/10/21 04:47:27;;;;;;;15.48;6.03;;;;;;;11.36;100.00;98616.66;5006012;28;20397;-77
2023/10/21 04:49:52;;;;;;;13.20;5.90;;;;;;;11.35;100.00;98615.84;4990674;28;20033;-76
2023/10/21 04:52:18;;;;;;;11.68;6.30;;;;;;;11.31;100.00;98611.91;5009440;28;20026;-79
2023/10/21 04:54:43;;;;;;;11.73;6.35;;;;;;;11.35;100.00;98625.53;5009560;28;20026;-76
2023/10/21 04:57:10;;;;;;;10.75;6.20;;;;;;;11.32;100.00;98618.81;5009231;28;20025;-77
2023/10/21 04:59:35;;;;;;;14.65;6.95;;;;;;;11.34;100.00;98626.53;5007857;28;20108;-76
2023/10/21 05:02:01;;;;;;;13.93;6.65;;;;;;;11.32;100.00;98628.53;5009729;28;20483;-77
2023/10/21 05:04:27;;;;;;;12.82;6.03;;;;;;;11.30;100.00;98640.03;5008230;28;20107;-77
2023/10/21 05:06:52;;;;;;;12.68;6.28;;;;;;;11.28;100.00;98644.66;5009913;28;20045;-77
2023/10/21 05:09:17;;;;;;;13.55;6.28;;;;;;;11.30;100.00;98644.50;5007766;28;20041;-76
2023/10/21 05:11:43;;;;;;;13.82;6.50;;;;;;;11.27;100.00;98643.03;5009316;28;20030;-77
2023/10/21 05:14:08;;;;;;;17.25;6.50;;;;;;;11.26;100.00;98651.09;5010649;28;20493;-77
2023/10/21 05:16:36;;;;;;;15.95;6.75;;;;;;;11.23;100.00;98647.00;5008161;28;20540;-76
2023/10/21 05:19:03;;;;;;;14.43;6.63;;;;;;;11.22;100.00;98650.63;5009110;28;20041;-76
2023/10/21 05:21:29;;;;;;;11.82;6.10;;;;;;;11.24;100.00;98647.81;4991696;28;20099;-76
2023/10/21 05:23:54;;;;;;;12.43;6.32;;;;;;;11.23;100.00;98652.25;5008024;28;20054;-76
2023/10/21 05:26:20;;;;;;;12.45;5.95;;;;;;;11.23;100.00;98652.25;5009689;28;20383;-77
2023/10/21 05:28:45;;;;;;;20.58;6.88;;;;;;;11.24;100.00;98664.44;5008892;28;20088;-77
2023/10/21 05:31:11;;;;;;;17.58;5.72;;;;;;;11.26;100.00;98666.88;5008816;28;20021;-77
2023/10/21 05:33:36;;;;;;;15.80;6.38;;;;;;;11.28;100.00;98664.91;5007884;28;20025;-77
2023/10/21 05:36:03;;;;;;;11.95;5.95;;;;;;;11.27;100.00;98669.34;5007139;28;20482;-77
2023/10/21 05:38:30;;;;;;;12.25;5.55;;;;;;;11.29;100.00;98671.81;5008594;28;20018;-77
2023/10/21 05:40:59;;;;;;;10.43;5.68;;;;;;;11.30;100.00;98679.53;5008427;28;20034;-77
2023/10/21 05:43:24;;;;;;;11.98;5.50;;;;;;;11.34;100.00;98680.00;5008582;28;20026;-77
2023/10/21 05:45:49;;;;;;;12.95;5.43;;;;;;;11.37;100.00;98690.19;4991228;28;20112;-77
2023/10/21 05:48:15;;;;;;;9.82;5.22;;;;;;;11.40;100.00;98684.59;5010081;28;20117;-77
2023/10/21 05:50:41;;;;;;;9.45;5.20;;;;;;;11.43;100.00;98699.22;4991009;28;20030;-77
2023/10/21 05:53:06;;;;;;;11.75;5.18;;;;;;;11.47;100.00;98695.25;4994249;28;20026;-77
2023/10/21 05:55:32;;;;;;;10.68;5.15;;;;;;;11.49;100.00;98706.44;5007093;28;20030;-77
2023/10/21 05:57:57;;;;;;;12.48;5.15;;;;;;;11.51;100.00;98701.81;4989856;28;20022;-77
2023/10/21 06:00:23;;;;;;;10.80;4.82;;;;;;;11.55;100.00;98703.09;5005175;28;20509;-77
2023/10/21 06:02:49;;;;;;;11.90;4.97;;;;;;;11.59;100.00;98714.94;5008506;28;20037;-77
2023/10/21 06:05:14;;;;;;;9.50;4.80;;;;;;;11.63;100.00;98712.81;4991704;28;20435;-77
2023/10/21 06:07:43;;;;;;;10.98;5.18;;;;;;;11.67;100.00;98727.28;5009573;28;20463;-77
2023/10/21 06:10:09;;;;;;;9.07;4.65;;;;;;;11.71;100.00;98725.94;5009980;28;20546;-77
2023/10/21 06:12:37;;;;;;;11.85;4.53;;;;;;;11.73;100.00;98727.41;5006356;28;20026;-77
2023/10/21 06:15:03;;;;;;;12.43;4.90;;;;;;;11.75;100.00;98735.94;5004847;28;20057;-77
2023/10/21 06:17:28;;;;;;;10.80;4.82;;;;;;;11.80;100.00;98740.72;5008623;28;20467;-77
2023/10/21 06:19:54;;;;;;;11.88;4.68;;;;;;;11.81;100.00;98750.28;5003437;28;20900;-78
2023/10/21 06:22:19;;;;;;;8.82;4.85;;;;;;;11.83;100.00;98743.81;5007603;28;20087;-77
2023/10/21 06:24:46;;;;;;;12.70;5.00;;;;;;;11.86;100.00;98759.28;5008481;28;20615;-77
2023/10/21 06:27:12;;;;;;;12.07;4.78;;;;;;;11.88;100.00;98759.94;4992577;28;20535;-77
2023/10/21 06:29:37;;;;;;;20.40;5.10;;;;;;;11.90;100.00;98775.56;5011969;28;20028;-77
2023/10/21 06:32:06;;;;;;;14.85;4.75;;;;;;;11.95;100.00;98777.69;5011361;28;20029;-77
2023/10/21 06:34:36;;;;;;;9.68;4.28;;;;;;;11.98;100.00;98783.44;5011226;28;20084;-77
2023/10/21 06:37:01;;;;;;;12.57;4.30;;;;;;;12.02;100.00;98784.75;4995465;28;20056;-77
2023/10/21 06:39:28;;;;;;;10.30;4.32;;;;;;;12.06;100.00;98790.50;5011944;28;20026;-79
2023/10/21 06:41:53;;;;;;;10.02;4.03;;;;;;;12.08;100.00;98793.78;5011122;28;20037;-77
2023/10/21 06:44:18;;;;;;;8.70;3.80;;;;;;;12.11;100.00;98803.97;5012105;28;20025;-79
2023/10/21 06:46:44;;;;;;;13.73;4.03;;;;;;;12.13;100.00;98802.00;5012108;28;20468;-80
2023/10/21 06:49:10;;;;;;;7.70;3.38;;;;;;;12.15;100.00;98805.28;5010786;28;20026;-78
2023/10/21 06:51:36;;;;;;;8.00;3.35;;;;;;;12.19;100.00;98817.09;5011885;28;20030;-78
2023/10/21 06:54:02;;;;;;;10.35;4.00;;;;;;;12.22;100.00;98811.50;5011807;28;20026;-78
2023/10/21 06:56:28;;;;;;;10.80;3.20;;;;;;;12.25;100.00;98813.78;5011814;28;20010;-78
2023/10/21 06:58:53;;;;;;;9.00;3.60;;;;;;;12.26;100.00;98812.78;5012210;28;20018;-78
2023/10/21 07:01:18;;;;;;;7.50;3.42;;;;;;;12.29;100.00;98830.88;5011176;28;20399;-76
2023/10/21 07:03:44;;;;;;;8.20;3.13;;;;;;;12.30;100.00;98826.44;5012531;28;20026;-78
2023/10/21 07:06:09;;;;;;;9.68;3.35;;;;;;;12.33;100.00;98842.72;4992997;28;20547;-78
2023/10/21 07:08:37;;;;;;;8.10;4.07;;;;;;;12.35;100.00;98846.00;5011165;28;20041;-78
2023/10/21 07:11:03;;;;;;;6.85;3.20;;;;;;;12.36;100.00;98847.66;4994232;28;20029;-79
2023/10/21 07:13:29;;;;;;;7.28;3.20;;;;;;;12.37;100.00;98851.94;4998625;28;20045;-79
2023/10/21 07:15:54;;;;;;;7.57;3.35;;;;;;;12.39;100.00;98859.66;4993837;28;20133;-79
2023/10/21 07:18:19;;;;;;;6.47;3.35;;;;;;;12.37;100.00;98867.75;4995120;28;20032;-78
2023/10/21 07:20:45;;;;;;;8.80;4.57;;;;;;;12.38;100.00;98890.50;4996029;28;20038;-79
2023/10/21 07:23:12;;;;;;;4.60;1.90;;;;;;;12.32;100.00;98895.63;4996972;28;20050;-77
2023/10/21 07:25:38;;;;;;;2.90;1.33;;;;;;;12.26;100.00;98906.88;5010304;28;20050;-78
2023/10/21 07:28:04;;;;;;;3.58;1.27;;;;;;;12.19;100.00;98915.47;5010877;28;20029;-78
2023/10/21 07:30:30;;;;;;;3.83;1.15;;;;;;;12.19;100.00;98917.28;5002359;28;20026;-77
2023/10/21 07:32:55;;;;;;;2.53;0.98;;;;;;;12.15;100.00;98934.44;5007748;28;20034;-78
2023/10/21 07:35:21;;;;;;;2.00;0.90;;;;;;;12.15;100.00;98947.63;5013519;28;20061;-78
2023/10/21 07:37:46;;;;;;;2.92;1.65;;;;;;;12.13;100.00;98949.63;5012374;28;20032;-78
2023/10/21 07:40:13;;;;;;;4.35;1.10;;;;;;;12.12;100.00;98958.53;5008642;28;20380;-78
2023/10/21 07:42:38;;;;;;;2.95;0.98;;;;;;;12.11;100.00;98968.25;5010149;28;20498;-78
2023/10/21 07:45:05;;;;;;;1.38;0.70;;;;;;;12.15;100.00;98966.09;5011709;28;20117;-78
2023/10/21 07:47:33;;;;;;;1.95;0.73;;;;;;;12.16;100.00;98980.91;5010739;28;20450;-77
2023/10/21 07:49:58;;;;;;;3.70;1.33;;;;;;;12.19;100.00;98994.56;5008870;28;20025;-78
2023/10/21 07:52:24;;;;;;;3.65;0.90;;;;;;;12.19;100.00;98991.94;5011420;28;20112;-78
2023/10/21 07:54:50;;;;;;;2.15;0.93;;;;;;;12.19;100.00;98999.84;5011493;28;20064;-77
2023/10/21 07:57:15;;;;;;;2.65;1.00;;;;;;;12.16;100.00;99004.63;5011940;28;20041;-78
2023/10/21 07:59:40;;;;;;;4.32;0.90;;;;;;;12.15;100.00;99005.63;5010813;28;20049;-78
2023/10/21 08:02:06;;;;;;;3.67;0.80;;;;;;;12.13;100.00;99016.34;5011813;28;20076;-76
2023/10/21 08:04:31;;;;;;;2.28;0.90;;;;;;;12.13;100.00;99015.53;4993742;28;20127;-76
2023/10/21 08:06:58;;;;;;;1.40;0.80;;;;;;;12.13;100.00;99024.25;5020515;28;20022;-77
2023/10/21 08:09:23;;;;;;;1.52;0.90;;;;;;;12.16;100.00;99018.66;5010832;28;20057;-76
2023/10/21 08:11:48;;;;;;;4.68;1.10;;;;;;;12.19;100.00;99023.59;5007338;28;20107;-77
2023/10/21 08:14:14;;;;;;;3.63;0.90;;;;;;;12.24;100.00;99025.72;5011197;28;20484;-77
2023/10/21 08:16:40;;;;;;;2.60;0.90;;;;;;;12.33;100.00;99029.97;5010100;28;20034;-79
2023/10/21 08:19:06;;;;;;;2.13;0.82;;;;;;;12.42;100.00;99028.97;5010569;28;20026;-79
2023/10/21 08:21:35;;;;;;;4.45;1.00;;;;;;;12.49;100.00;99034.38;5011001;28;20025;-78
2023/10/21 08:24:04;;;;;;;2.25;1.00;;;;;;;12.66;100.00;99033.31;5009908;28;20042;-78
2023/10/21 08:26:31;;;;;;;6.00;1.10;;;;;;;12.72;100.00;99045.00;4992607;28;20037;-79
2023/10/21 08:28:57;;;;;;;1.67;0.70;;;;;;;12.85;100.00;99042.66;4992259;28;20480;-78
2023/10/21 08:31:24;;;;;;;2.63;0.90;;;;;;;12.95;100.00;99040.63;5010328;28;20172;-78
2023/10/21 08:33:50;;;;;;;2.53;0.80;;;;;;;13.01;100.00;99039.91;5008708;28;20033;-78
2023/10/21 08:36:19;;;;;;;1.95;0.60;;;;;;;13.04;100.00;99044.03;5011118;28;20379;-78
2023/10/21 08:38:46;;;;;;;1.52;0.70;;;;;;;13.05;100.00;99051.78;5003866;28;20033;-79
2023/10/21 08:41:12;;;;;;;1.40;0.60;;;;;;;13.04;100.00;99054.59;5008487;28;20034;-78
2023/10/21 08:43:38;;;;;;;1.63;0.60;;;;;;;13.00;100.00;99064.69;5000083;28;20050;-78
2023/10/21 08:46:07;;;;;;;3.40;0.60;;;;;;;13.03;100.00;99069.59;4994380;28;20060;-78
2023/10/21 08:48:37;;;;;;;3.50;0.70;;;;;;;12.98;100.00;99076.41;5009963;28;20100;-78
2023/10/21 08:51:04;;;;;;;3.20;0.93;;;;;;;12.92;100.00;99075.28;4992886;28;20443;-79
2023/10/21 08:53:36;;;;;;;2.65;0.80;;;;;;;12.93;100.00;99076.09;4992439;28;20396;-78
2023/10/21 08:56:01;;;;;;;3.17;0.80;;;;;;;13.00;100.00;99085.78;4984885;28;20392;-79
2023/10/21 08:58:31;;;;;;;3.05;0.75;;;;;;;13.02;100.00;99082.97;5010442;28;20052;-79
2023/10/21 09:00:56;;;;;;;3.42;0.90;;;;;;;13.10;100.00;99086.41;5006746;28;20025;-78
2023/10/21 09:03:23;;;;;;;2.63;0.90;;;;;;;13.13;100.00;99090.50;5008862;28;20044;-79
2023/10/21 09:06:11;;;;;;;4.38;0.93;;;;;;;13.18;100.00;99094.31;5005093;28;20093;-78
2023/10/21 09:08:38;;;;;;;3.05;0.82;;;;;;;13.20;100.00;99109.97;5004994;28;20026;-78
2023/10/21 09:11:06;;;;;;;4.53;0.93;;;;;;;13.23;100.00;99104.38;5026215;28;20160;-78
2023/10/21 09:13:36;;;;;;;3.17;0.80;;;;;;;13.28;100.00;99114.41;5030272;28;20032;-78
2023/10/21 09:16:19;;;;;;;3.25;1.00;;;;;;;13.30;100.00;99118.53;5011878;28;20031;-78
2023/10/21 09:18:59;;;;;;;2.53;0.88;;;;;;;13.32;100.00;99129.75;5029615;28;20501;-78
2023/10/21 09:21:45;;;;;;;4.60;1.10;;;;;;;13.28;100.00;99130.28;5029512;28;20031;-78
2023/10/21 09:24:12;;;;;;;2.70;0.88;;;;;;;13.28;100.00;99130.28;5029954;28;20529;-78
2023/10/21 09:26:40;;;;;;;4.70;1.05;;;;;;;13.26;100.00;99138.38;5029556;28;20493;-77
2023/10/21 09:29:13;;;;;;;3.97;0.90;;;;;;;13.28;100.00;99135.56;5029408;28;20159;-79
2023/10/21 09:31:43;;;;;;;4.22;0.90;;;;;;;13.33;100.00;99149.06;5029520;28;20033;-78
2023/10/21 09:34:09;;;;;;;2.65;0.90;;;;;;;13.31;100.00;99140.50;5012357;28;20057;-78
2023/10/21 09:36:41;;;;;;;4.35;1.20;;;;;;;13.35;100.00;99142.59;5013644;28;20021;-78
2023/10/21 09:39:06;;;;;;;3.45;1.10;;;;;;;13.32;100.00;99140.31;4992520;28;20061;-78
2023/10/21 09:41:32;;;;;;;3.55;1.00;;;;;;;13.38;100.00;99144.91;5009716;28;20049;-77
2023/10/21 09:44:02;;;;;;;6.10;1.00;;;;;;;13.35;100.00;99147.88;5007418;28;20659;-78
2023/10/21 09:46:30;;;;;;;5.20;1.00;;;;;;;13.48;100.00;99150.78;5009910;28;20069;-78
2023/10/21 09:49:00;;;;;;;3.33;0.93;;;;;;;13.56;100.00;99159.66;5007897;28;20034;-78
2023/10/21 09:51:32;;;;;;;4.60;1.05;;;;;;;13.60;100.00;99161.78;4975052;28;20041;-78
2023/10/21 09:54:01;;;;;;;4.38;1.02;;;;;;;13.65;100.00;99153.34;4989715;28;20026;-77
2023/10/21 09:56:27;;;;;;;3.97;1.00;;;;;;;13.73;100.00;99158.59;4989681;28;20023;-77
2023/10/21 09:58:54;;;;;;;3.83;1.20;;;;;;;13.77;100.00;99168.63;4989671;28;20369;-78
2023/10/21 10:01:23;;;;;;;4.13;1.20;;;;;;;13.82;100.00;99169.91;4990276;28;20057;-78
2023/10/21 10:03:51;;;;;;;6.65;1.23;;;;;;;13.86;100.00;99176.50;4989628;28;20053;-77
2023/10/21 10:06:19;;;;;;;3.40;0.90;;;;;;;13.84;100.00;99167.91;4994491;28;20027;-78
2023/10/21 10:08:46;;;;;;;5.22;1.25;;;;;;;13.85;100.00;99175.69;5012731;28;20106;-77
2023/10/21 10:11:15;;;;;;;4.93;1.10;;;;;;;13.86;100.00;99182.59;5032116;28;20030;-77
2023/10/21 10:13:46;;;;;;;3.97;1.13;;;;;;;13.99;99.89;99184.66;5032688;28;20148;-78
2023/10/21 10:16:25;;;;;;;4.35;1.00;;;;;;;14.07;99.59;99190.75;5033272;28;20497;-78
2023/10/21 10:18:52;;;;;;;6.80;1.27;;;;;;;14.00;96.12;99188.94;5023379;28;21906;-77
2023/10/21 10:21:18;;;;;;;3.90;1.15;;;;;;;14.01;100.00;99185.34;5014742;28;20025;-78
2023/10/21 10:23:58;;;;;;;5.78;1.40;;;;;;;14.14;100.00;99185.56;5008144;28;20045;-77
2023/10/21 10:26:36;;;;;;;5.95;1.35;;;;;;;14.21;100.00;99183.03;5007152;28;20022;-77
2023/10/21 10:29:26;;;;;;;5.28;1.27;;;;;;;14.34;99.23;99186.72;5008963;28;20026;-78
2023/10/21 10:32:16;;;;;;;5.07;1.15;;;;;;;14.44;96.92;99188.34;4994457;28;20468;-77
2023/10/21 10:34:52;;;;;;;5.10;1.40;;;;;;;14.53;95.70;99189.91;5013402;28;20112;-78
2023/10/21 10:37:32;;;;;;;3.83;1.17;;;;;;;14.63;95.93;99185.16;4995569;28;20578;-77
2023/10/21 10:39:58;;;;;;;4.47;1.20;;;;;;;14.68;92.63;99185.44;5011131;28;20163;-77
2023/10/21 10:42:30;;;;;;;5.93;1.65;;;;;;;14.80;92.04;99202.53;5012789;28;20108;-77
2023/10/21 10:44:56;;;;;;;;;;;;;;;14.94;97.99;99193.78;5010899;28;20033;-77
2023/10/21 10:47:22;;;;;;;5.95;1.58;;;;;;;15.02;94.75;99200.81;4993723;28;19913;-79
2023/10/21 10:49:58;;;;;;;4.88;1.38;;;;;;;15.06;92.58;99202.09;4994069;28;20064;-79
2023/10/21 10:52:33;;;;;;;5.65;1.40;;;;;;;15.14;90.48;99194.06;4994217;28;20021;-79
2023/10/21 10:55:00;;;;;;;5.78;1.30;;;;;;;15.17;86.67;99208.75;5012013;28;20032;-77
2023/10/21 10:57:27;;;;;;;4.80;1.48;;;;;;;15.21;85.45;99215.34;5010260;28;20029;-77
2023/10/21 10:59:53;;;;;;;8.68;1.85;;;;;;;15.14;85.41;99203.81;4990514;28;20025;-78
2023/10/21 11:02:18;;;;;;;4.72;1.48;;;;;;;14.98;87.22;99210.97;5011315;28;20454;-78
2023/10/21 11:04:48;;;;;;;6.13;1.30;;;;;;;14.94;87.17;99224.75;5011416;28;20022;-77
2023/10/21 11:07:15;;;;;;;7.50;1.70;;;;;;;15.01;85.22;99209.78;5011740;28;20072;-77
2023/10/21 11:09:40;;;;;;;5.65;1.50;;;;;;;15.01;83.98;99215.06;4994861;28;20033;-78
2023/10/21 11:12:05;;;;;;;7.95;1.60;;;;;;;15.01;82.98;99223.84;5011804;28;20030;-77
2023/10/21 11:14:31;;;;;;;5.00;1.48;;;;;;;14.90;82.19;99229.59;5010923;28;20050;-77
2023/10/21 11:16:56;;;;;;;3.75;1.48;;;;;;;14.82;83.45;99227.03;4992567;28;20033;-77
2023/10/21 11:19:23;;;;;;;5.25;1.90;;;;;;;14.71;82.74;99232.75;5009741;28;20021;-77
2023/10/21 11:21:48;;;;;;;8.77;1.50;;;;;;;14.71;86.33;99240.69;5008961;28;20037;-78
2023/10/21 11:24:15;;;;;;;5.07;1.50;;;;;;;14.75;85.01;99223.44;5010552;28;20140;-77